Airfield :
LOGIN :

Register | Disclaimer

   EN    FR    IT 

 










Legend :    VFR   Marginal VFR   IFR   Intensive IFR   Very Intensive IFR
Visi :
Ceiling :
>= 8 km
>= 3000ft
5 to 8 km
1000 to 3000 ft
1500m to 5 km
500 to 1000 ft
800 to 1500m
200 to 500 ft
< 800m
< 200 ft
Symbols :   Thunderstorms  Fog  Heavy snow  Heavy precipitations  Wind > 20 kt
SIGMETs :     Misc.  Thunderstorms  Icing  Turbulence  Mountain Waves  Volcanic Ashes






- Airport Elevation : 665 ft
- IATA code : NOC


EIKN - Connaught / Knock- Ireland West

METAR N/A
TAF TAF EIKN
Valid from the 27 at 18:00 until the 28 at 18:00 UTC


271700Z 2718/2818 22010KT 9999 SCT018 SCT030
TEMPO 2718/2721 24015G26KT 4000 SHRA FEW012 SCT016CB
TEMPO 2721/2818 -SHRA FEW012 SCT018CB
BECMG 2723/2801 18008KT
PROB40
TEMPO 2723/2808 3000 BR
BECMG 2808/2810 21010KT
PROB40
TEMPO 2810/2818 4000 SHRA
BECMG 2811/2813 29013G25KT
BECMG 2813/2815 27012KT
BECMG 2816/2818 22007KT



MET'MAP, your aeronautical weather chart ! - Copyright ORBIFLY December 2007 - Disclaimer

ORBIFLY MET'MAP TEAM :

Programming & Development : Alexandra Zaïnal
Concept & original design : Baudouin d'Aumeries
Assistance for programming : Marc-Olivier Méhu
Technical & hardware support : Manuel Goepfert

Contact : metmap@orbifly.com




SOURCES & CREDITS :

   NOAA